sensor_id;sensor_type;location;lat;lon;timestamp;P1;durP1;ratioP1;P2;durP2;ratioP2
45534;SDS011;35892;48.798;9.698;2022-10-13T00:01:12;40.25;;;13.07;;
45534;SDS011;35892;48.798;9.698;2022-10-13T00:03:43;25.80;;;12.82;;
45534;SDS011;35892;48.798;9.698;2022-10-13T00:06:13;24.10;;;12.60;;
45534;SDS011;35892;48.798;9.698;2022-10-13T00:08:41;17.88;;;8.98;;
45534;SDS011;35892;48.798;9.698;2022-10-13T00:13:49;24.55;;;13.20;;
45534;SDS011;35892;48.798;9.698;2022-10-13T00:16:18;21.17;;;12.38;;
45534;SDS011;35892;48.798;9.698;2022-10-13T00:18:46;29.00;;;15.05;;
45534;SDS011;35892;48.798;9.698;2022-10-13T00:21:14;20.60;;;10.05;;
45534;SDS011;35892;48.798;9.698;2022-10-13T00:23:42;19.35;;;12.40;;
45534;SDS011;35892;48.798;9.698;2022-10-13T00:26:09;20.83;;;11.43;;
45534;SDS011;35892;48.798;9.698;2022-10-13T00:28:39;19.17;;;12.82;;
45534;SDS011;35892;48.798;9.698;2022-10-13T00:31:17;23.20;;;10.82;;
45534;SDS011;35892;48.798;9.698;2022-10-13T00:33:44;22.80;;;11.50;;
45534;SDS011;35892;48.798;9.698;2022-10-13T00:36:14;13.05;;;8.45;;
45534;SDS011;35892;48.798;9.698;2022-10-13T00:38:46;24.90;;;12.45;;
45534;SDS011;35892;48.798;9.698;2022-10-13T00:41:16;21.30;;;13.10;;
45534;SDS011;35892;48.798;9.698;2022-10-13T00:43:51;17.83;;;10.85;;
45534;SDS011;35892;48.798;9.698;2022-10-13T00:46:27;17.52;;;11.13;;
45534;SDS011;35892;48.798;9.698;2022-10-13T00:49:19;18.92;;;11.02;;
45534;SDS011;35892;48.798;9.698;2022-10-13T00:51:47;16.77;;;10.45;;
45534;SDS011;35892;48.798;9.698;2022-10-13T00:54:16;15.45;;;11.25;;
45534;SDS011;35892;48.798;9.698;2022-10-13T00:56:46;21.23;;;12.00;;
45534;SDS011;35892;48.798;9.698;2022-10-13T00:59:18;21.33;;;11.15;;
45534;SDS011;35892;48.798;9.698;2022-10-13T01:01:50;12.80;;;9.38;;
45534;SDS011;35892;48.798;9.698;2022-10-13T01:04:18;13.68;;;10.20;;
45534;SDS011;35892;48.798;9.698;2022-10-13T01:06:49;15.27;;;11.02;;
45534;SDS011;35892;48.798;9.698;2022-10-13T01:09:22;16.30;;;10.48;;
45534;SDS011;35892;48.798;9.698;2022-10-13T01:15:00;16.65;;;10.50;;
45534;SDS011;35892;48.798;9.698;2022-10-13T01:17:36;15.13;;;9.20;;
45534;SDS011;35892;48.798;9.698;2022-10-13T01:26:35;17.50;;;10.30;;
45534;SDS011;35892;48.798;9.698;2022-10-13T01:40:25;12.05;;;8.35;;
45534;SDS011;35892;48.798;9.698;2022-10-13T01:43:10;17.63;;;10.30;;
45534;SDS011;35892;48.798;9.698;2022-10-13T01:48:17;19.30;;;10.23;;
45534;SDS011;35892;48.798;9.698;2022-10-13T01:50:45;15.95;;;10.07;;
45534;SDS011;35892;48.798;9.698;2022-10-13T01:53:18;23.23;;;10.95;;
45534;SDS011;35892;48.798;9.698;2022-10-13T01:55:49;15.38;;;8.63;;
45534;SDS011;35892;48.798;9.698;2022-10-13T01:58:20;18.75;;;11.25;;
45534;SDS011;35892;48.798;9.698;2022-10-13T02:00:55;22.58;;;11.30;;
45534;SDS011;35892;48.798;9.698;2022-10-13T02:03:40;17.23;;;10.18;;
45534;SDS011;35892;48.798;9.698;2022-10-13T02:06:23;15.75;;;8.93;;
45534;SDS011;35892;48.798;9.698;2022-10-13T02:11:49;15.85;;;9.95;;
45534;SDS011;35892;48.798;9.698;2022-10-13T02:14:32;19.67;;;10.90;;
45534;SDS011;35892;48.798;9.698;2022-10-13T02:17:03;17.25;;;10.32;;
45534;SDS011;35892;48.798;9.698;2022-10-13T02:19:34;12.52;;;8.23;;
45534;SDS011;35892;48.798;9.698;2022-10-13T02:22:05;13.02;;;8.10;;
45534;SDS011;35892;48.798;9.698;2022-10-13T02:24:35;13.30;;;7.93;;
45534;SDS011;35892;48.798;9.698;2022-10-13T02:27:03;20.05;;;11.30;;
45534;SDS011;35892;48.798;9.698;2022-10-13T02:29:31;16.15;;;9.50;;
45534;SDS011;35892;48.798;9.698;2022-10-13T02:31:57;16.73;;;11.45;;
45534;SDS011;35892;48.798;9.698;2022-10-13T02:34:24;19.92;;;11.82;;
45534;SDS011;35892;48.798;9.698;2022-10-13T02:36:53;18.98;;;11.07;;
45534;SDS011;35892;48.798;9.698;2022-10-13T02:39:24;21.92;;;12.50;;
45534;SDS011;35892;48.798;9.698;2022-10-13T02:41:51;19.60;;;11.60;;
45534;SDS011;35892;48.798;9.698;2022-10-13T02:44:20;18.92;;;12.05;;
45534;SDS011;35892;48.798;9.698;2022-10-13T02:46:51;14.75;;;9.95;;
45534;SDS011;35892;48.798;9.698;2022-10-13T02:49:23;16.98;;;11.05;;
45534;SDS011;35892;48.798;9.698;2022-10-13T02:51:49;17.50;;;11.40;;
45534;SDS011;35892;48.798;9.698;2022-10-13T02:54:18;12.73;;;9.65;;
45534;SDS011;35892;48.798;9.698;2022-10-13T02:56:45;18.27;;;10.50;;
45534;SDS011;35892;48.798;9.698;2022-10-13T02:59:12;17.92;;;10.77;;
45534;SDS011;35892;48.798;9.698;2022-10-13T03:01:41;15.80;;;11.02;;
45534;SDS011;35892;48.798;9.698;2022-10-13T03:04:10;18.60;;;12.13;;
45534;SDS011;35892;48.798;9.698;2022-10-13T03:06:37;12.95;;;9.63;;
45534;SDS011;35892;48.798;9.698;2022-10-13T03:09:05;13.68;;;10.63;;
45534;SDS011;35892;48.798;9.698;2022-10-13T03:11:34;16.83;;;10.25;;
45534;SDS011;35892;48.798;9.698;2022-10-13T03:14:01;16.75;;;9.85;;
45534;SDS011;35892;48.798;9.698;2022-10-13T03:16:28;16.15;;;9.50;;
45534;SDS011;35892;48.798;9.698;2022-10-13T03:18:55;16.20;;;9.98;;
45534;SDS011;35892;48.798;9.698;2022-10-13T03:21:24;13.55;;;8.98;;
45534;SDS011;35892;48.798;9.698;2022-10-13T03:23:51;15.82;;;10.52;;
45534;SDS011;35892;48.798;9.698;2022-10-13T03:26:20;15.20;;;10.45;;
45534;SDS011;35892;48.798;9.698;2022-10-13T03:28:49;20.55;;;11.52;;
45534;SDS011;35892;48.798;9.698;2022-10-13T03:31:17;16.45;;;11.13;;
45534;SDS011;35892;48.798;9.698;2022-10-13T03:33:44;17.85;;;11.55;;
45534;SDS011;35892;48.798;9.698;2022-10-13T03:36:11;14.82;;;10.20;;
45534;SDS011;35892;48.798;9.698;2022-10-13T03:38:41;13.27;;;9.57;;
45534;SDS011;35892;48.798;9.698;2022-10-13T03:41:11;18.73;;;12.45;;
45534;SDS011;35892;48.798;9.698;2022-10-13T03:43:39;17.40;;;11.18;;
45534;SDS011;35892;48.798;9.698;2022-10-13T03:46:07;14.35;;;10.77;;
45534;SDS011;35892;48.798;9.698;2022-10-13T03:48:37;14.68;;;11.38;;
45534;SDS011;35892;48.798;9.698;2022-10-13T03:51:07;16.65;;;11.77;;
45534;SDS011;35892;48.798;9.698;2022-10-13T03:53:36;14.98;;;10.80;;
45534;SDS011;35892;48.798;9.698;2022-10-13T03:56:02;18.27;;;11.90;;
45534;SDS011;35892;48.798;9.698;2022-10-13T03:58:35;15.48;;;10.85;;
45534;SDS011;35892;48.798;9.698;2022-10-13T04:01:02;14.27;;;9.95;;
45534;SDS011;35892;48.798;9.698;2022-10-13T04:03:32;15.15;;;10.02;;
45534;SDS011;35892;48.798;9.698;2022-10-13T04:06:01;15.40;;;10.25;;
45534;SDS011;35892;48.798;9.698;2022-10-13T04:08:32;15.95;;;11.13;;
45534;SDS011;35892;48.798;9.698;2022-10-13T04:10:59;19.77;;;11.93;;
45534;SDS011;35892;48.798;9.698;2022-10-13T04:13:29;17.02;;;12.32;;
45534;SDS011;35892;48.798;9.698;2022-10-13T04:16:03;12.93;;;9.35;;
45534;SDS011;35892;48.798;9.698;2022-10-13T04:18:31;15.63;;;10.43;;
45534;SDS011;35892;48.798;9.698;2022-10-13T04:20:58;17.65;;;11.05;;
45534;SDS011;35892;48.798;9.698;2022-10-13T04:23:25;12.25;;;9.57;;
45534;SDS011;35892;48.798;9.698;2022-10-13T04:25:52;14.00;;;10.13;;
45534;SDS011;35892;48.798;9.698;2022-10-13T04:28:22;18.48;;;11.70;;
45534;SDS011;35892;48.798;9.698;2022-10-13T04:30:51;16.23;;;11.88;;
45534;SDS011;35892;48.798;9.698;2022-10-13T04:33:20;20.45;;;11.40;;
45534;SDS011;35892;48.798;9.698;2022-10-13T04:35:47;18.50;;;12.57;;
45534;SDS011;35892;48.798;9.698;2022-10-13T04:38:13;18.58;;;12.45;;
45534;SDS011;35892;48.798;9.698;2022-10-13T04:40:42;18.38;;;11.43;;
45534;SDS011;35892;48.798;9.698;2022-10-13T04:43:09;17.73;;;12.23;;
45534;SDS011;35892;48.798;9.698;2022-10-13T04:45:36;19.38;;;11.85;;
45534;SDS011;35892;48.798;9.698;2022-10-13T04:48:05;20.58;;;13.05;;
45534;SDS011;35892;48.798;9.698;2022-10-13T04:50:31;17.52;;;12.55;;
45534;SDS011;35892;48.798;9.698;2022-10-13T04:53:01;19.42;;;12.23;;
45534;SDS011;35892;48.798;9.698;2022-10-13T04:55:27;18.95;;;12.63;;
45534;SDS011;35892;48.798;9.698;2022-10-13T04:57:54;21.05;;;13.00;;
45534;SDS011;35892;48.798;9.698;2022-10-13T05:00:21;18.92;;;13.15;;
45534;SDS011;35892;48.798;9.698;2022-10-13T05:02:48;20.20;;;13.20;;
45534;SDS011;35892;48.798;9.698;2022-10-13T05:05:15;16.25;;;12.63;;
45534;SDS011;35892;48.798;9.698;2022-10-13T05:07:41;21.30;;;13.05;;
45534;SDS011;35892;48.798;9.698;2022-10-13T05:10:10;19.27;;;12.88;;
45534;SDS011;35892;48.798;9.698;2022-10-13T05:12:37;20.05;;;13.82;;
45534;SDS011;35892;48.798;9.698;2022-10-13T05:15:04;18.00;;;13.38;;
45534;SDS011;35892;48.798;9.698;2022-10-13T05:17:31;23.00;;;13.20;;
45534;SDS011;35892;48.798;9.698;2022-10-13T05:20:00;17.23;;;12.02;;
45534;SDS011;35892;48.798;9.698;2022-10-13T05:22:27;22.80;;;14.85;;
45534;SDS011;35892;48.798;9.698;2022-10-13T05:24:57;24.42;;;15.50;;
45534;SDS011;35892;48.798;9.698;2022-10-13T05:27:24;23.13;;;15.13;;
45534;SDS011;35892;48.798;9.698;2022-10-13T05:29:54;23.83;;;15.57;;
45534;SDS011;35892;48.798;9.698;2022-10-13T05:32:23;20.30;;;13.65;;
45534;SDS011;35892;48.798;9.698;2022-10-13T05:34:50;21.08;;;14.20;;
45534;SDS011;35892;48.798;9.698;2022-10-13T05:37:17;23.08;;;14.95;;
45534;SDS011;35892;48.798;9.698;2022-10-13T05:39:43;22.20;;;15.05;;
45534;SDS011;35892;48.798;9.698;2022-10-13T05:42:14;20.60;;;12.85;;
45534;SDS011;35892;48.798;9.698;2022-10-13T05:44:44;19.67;;;14.32;;
45534;SDS011;35892;48.798;9.698;2022-10-13T05:47:10;19.05;;;14.20;;
45534;SDS011;35892;48.798;9.698;2022-10-13T05:49:39;17.40;;;12.52;;
45534;SDS011;35892;48.798;9.698;2022-10-13T05:52:09;23.38;;;14.13;;
45534;SDS011;35892;48.798;9.698;2022-10-13T05:54:44;23.05;;;14.85;;
45534;SDS011;35892;48.798;9.698;2022-10-13T05:57:22;17.77;;;11.00;;
45534;SDS011;35892;48.798;9.698;2022-10-13T05:59:51;18.70;;;12.27;;
45534;SDS011;35892;48.798;9.698;2022-10-13T06:02:25;19.27;;;14.27;;
45534;SDS011;35892;48.798;9.698;2022-10-13T06:04:59;20.15;;;13.68;;
45534;SDS011;35892;48.798;9.698;2022-10-13T06:07:31;17.13;;;13.35;;
45534;SDS011;35892;48.798;9.698;2022-10-13T06:09:58;21.25;;;14.35;;
45534;SDS011;35892;48.798;9.698;2022-10-13T06:12:28;20.05;;;13.70;;
45534;SDS011;35892;48.798;9.698;2022-10-13T06:14:55;17.70;;;12.73;;
45534;SDS011;35892;48.798;9.698;2022-10-13T06:17:22;14.25;;;10.77;;
45534;SDS011;35892;48.798;9.698;2022-10-13T06:19:48;15.32;;;12.40;;
45534;SDS011;35892;48.798;9.698;2022-10-13T06:22:15;20.38;;;13.85;;
45534;SDS011;35892;48.798;9.698;2022-10-13T06:24:43;25.08;;;14.93;;
45534;SDS011;35892;48.798;9.698;2022-10-13T06:27:10;19.17;;;13.38;;
45534;SDS011;35892;48.798;9.698;2022-10-13T06:29:36;17.20;;;13.32;;
45534;SDS011;35892;48.798;9.698;2022-10-13T06:32:03;19.20;;;15.05;;
45534;SDS011;35892;48.798;9.698;2022-10-13T06:34:31;15.52;;;11.80;;
45534;SDS011;35892;48.798;9.698;2022-10-13T06:36:58;19.23;;;13.25;;
45534;SDS011;35892;48.798;9.698;2022-10-13T06:39:25;13.82;;;11.20;;
45534;SDS011;35892;48.798;9.698;2022-10-13T06:41:54;18.10;;;13.70;;
45534;SDS011;35892;48.798;9.698;2022-10-13T06:44:21;22.75;;;15.13;;
45534;SDS011;35892;48.798;9.698;2022-10-13T06:46:50;14.38;;;10.88;;
45534;SDS011;35892;48.798;9.698;2022-10-13T06:49:18;17.25;;;11.57;;
45534;SDS011;35892;48.798;9.698;2022-10-13T06:51:48;18.13;;;11.68;;
45534;SDS011;35892;48.798;9.698;2022-10-13T06:54:17;17.05;;;11.93;;
45534;SDS011;35892;48.798;9.698;2022-10-13T06:56:44;18.55;;;12.80;;
45534;SDS011;35892;48.798;9.698;2022-10-13T06:59:10;17.30;;;11.85;;
45534;SDS011;35892;48.798;9.698;2022-10-13T07:01:37;16.65;;;11.75;;
45534;SDS011;35892;48.798;9.698;2022-10-13T07:04:07;18.85;;;12.27;;
45534;SDS011;35892;48.798;9.698;2022-10-13T07:06:34;12.68;;;10.02;;
45534;SDS011;35892;48.798;9.698;2022-10-13T07:09:02;20.98;;;14.25;;
45534;SDS011;35892;48.798;9.698;2022-10-13T07:11:32;19.33;;;13.90;;
45534;SDS011;35892;48.798;9.698;2022-10-13T07:14:00;16.20;;;11.68;;
45534;SDS011;35892;48.798;9.698;2022-10-13T07:16:31;14.02;;;11.30;;
45534;SDS011;35892;48.798;9.698;2022-10-13T07:18:58;16.65;;;13.05;;
45534;SDS011;35892;48.798;9.698;2022-10-13T07:21:25;16.10;;;11.90;;
45534;SDS011;35892;48.798;9.698;2022-10-13T07:23:51;18.88;;;15.02;;
45534;SDS011;35892;48.798;9.698;2022-10-13T07:26:18;22.98;;;16.67;;
45534;SDS011;35892;48.798;9.698;2022-10-13T07:28:45;21.05;;;13.32;;
45534;SDS011;35892;48.798;9.698;2022-10-13T07:31:13;16.73;;;13.32;;
45534;SDS011;35892;48.798;9.698;2022-10-13T07:33:47;14.98;;;11.45;;
45534;SDS011;35892;48.798;9.698;2022-10-13T07:36:15;13.55;;;10.88;;
45534;SDS011;35892;48.798;9.698;2022-10-13T07:38:42;16.92;;;11.48;;
45534;SDS011;35892;48.798;9.698;2022-10-13T07:41:09;13.73;;;10.88;;
45534;SDS011;35892;48.798;9.698;2022-10-13T07:43:37;18.10;;;11.35;;
45534;SDS011;35892;48.798;9.698;2022-10-13T07:46:07;14.52;;;11.35;;
45534;SDS011;35892;48.798;9.698;2022-10-13T07:48:37;16.25;;;11.02;;
45534;SDS011;35892;48.798;9.698;2022-10-13T07:51:07;16.83;;;11.95;;
45534;SDS011;35892;48.798;9.698;2022-10-13T07:53:37;13.38;;;11.98;;
45534;SDS011;35892;48.798;9.698;2022-10-13T07:56:09;15.23;;;11.07;;
45534;SDS011;35892;48.798;9.698;2022-10-13T07:58:37;15.52;;;10.93;;
45534;SDS011;35892;48.798;9.698;2022-10-13T08:01:05;17.23;;;11.90;;
45534;SDS011;35892;48.798;9.698;2022-10-13T08:03:33;13.55;;;10.73;;
45534;SDS011;35892;48.798;9.698;2022-10-13T08:06:09;22.05;;;12.70;;
45534;SDS011;35892;48.798;9.698;2022-10-13T08:08:39;15.00;;;10.95;;
45534;SDS011;35892;48.798;9.698;2022-10-13T08:11:10;13.20;;;9.60;;
45534;SDS011;35892;48.798;9.698;2022-10-13T08:13:44;14.90;;;12.48;;
45534;SDS011;35892;48.798;9.698;2022-10-13T08:16:12;13.80;;;10.90;;
45534;SDS011;35892;48.798;9.698;2022-10-13T08:18:39;15.98;;;12.05;;
45534;SDS011;35892;48.798;9.698;2022-10-13T08:21:07;15.00;;;11.15;;
45534;SDS011;35892;48.798;9.698;2022-10-13T08:23:57;14.77;;;10.43;;
45534;SDS011;35892;48.798;9.698;2022-10-13T08:26:25;19.83;;;13.20;;
45534;SDS011;35892;48.798;9.698;2022-10-13T08:28:55;19.92;;;13.55;;
45534;SDS011;35892;48.798;9.698;2022-10-13T08:31:42;16.02;;;11.25;;
45534;SDS011;35892;48.798;9.698;2022-10-13T08:34:09;17.88;;;12.15;;
45534;SDS011;35892;48.798;9.698;2022-10-13T08:36:37;19.08;;;12.98;;
45534;SDS011;35892;48.798;9.698;2022-10-13T08:39:08;15.32;;;11.07;;
45534;SDS011;35892;48.798;9.698;2022-10-13T08:41:38;16.48;;;12.05;;
45534;SDS011;35892;48.798;9.698;2022-10-13T08:44:11;20.25;;;13.90;;
45534;SDS011;35892;48.798;9.698;2022-10-13T08:47:04;14.63;;;9.32;;
45534;SDS011;35892;48.798;9.698;2022-10-13T08:49:52;15.77;;;12.25;;
45534;SDS011;35892;48.798;9.698;2022-10-13T08:52:41;16.23;;;11.95;;
45534;SDS011;35892;48.798;9.698;2022-10-13T08:55:27;16.95;;;12.70;;
45534;SDS011;35892;48.798;9.698;2022-10-13T08:58:01;13.80;;;11.48;;
45534;SDS011;35892;48.798;9.698;2022-10-13T09:00:35;21.83;;;14.07;;
45534;SDS011;35892;48.798;9.698;2022-10-13T09:03:24;16.02;;;11.90;;
45534;SDS011;35892;48.798;9.698;2022-10-13T09:08:58;14.82;;;9.88;;
45534;SDS011;35892;48.798;9.698;2022-10-13T09:11:29;9.18;;;7.90;;
45534;SDS011;35892;48.798;9.698;2022-10-13T09:14:00;14.25;;;10.48;;
45534;SDS011;35892;48.798;9.698;2022-10-13T09:16:34;15.05;;;11.35;;
45534;SDS011;35892;48.798;9.698;2022-10-13T09:27:56;15.23;;;10.00;;
45534;SDS011;35892;48.798;9.698;2022-10-13T09:30:38;16.60;;;11.45;;
45534;SDS011;35892;48.798;9.698;2022-10-13T09:35:44;10.43;;;7.95;;
45534;SDS011;35892;48.798;9.698;2022-10-13T09:38:38;16.60;;;11.32;;
45534;SDS011;35892;48.798;9.698;2022-10-13T09:46:18;12.00;;;9.13;;
45534;SDS011;35892;48.798;9.698;2022-10-13T09:48:55;15.52;;;9.05;;
45534;SDS011;35892;48.798;9.698;2022-10-13T09:51:46;10.70;;;7.47;;
45534;SDS011;35892;48.798;9.698;2022-10-13T09:54:27;7.70;;;6.80;;
45534;SDS011;35892;48.798;9.698;2022-10-13T09:57:16;9.80;;;7.47;;
45534;SDS011;35892;48.798;9.698;2022-10-13T10:02:34;8.73;;;7.65;;
45534;SDS011;35892;48.798;9.698;2022-10-13T10:05:13;10.82;;;7.07;;
45534;SDS011;35892;48.798;9.698;2022-10-13T10:07:51;10.25;;;7.18;;
45534;SDS011;35892;48.798;9.698;2022-10-13T10:10:39;8.02;;;5.93;;
45534;SDS011;35892;48.798;9.698;2022-10-13T10:13:08;10.05;;;5.35;;
45534;SDS011;35892;48.798;9.698;2022-10-13T10:21:34;7.10;;;6.05;;
45534;SDS011;35892;48.798;9.698;2022-10-13T10:24:51;11.73;;;6.50;;
45534;SDS011;35892;48.798;9.698;2022-10-13T10:29:49;7.78;;;5.50;;
45534;SDS011;35892;48.798;9.698;2022-10-13T10:32:27;9.82;;;7.07;;
45534;SDS011;35892;48.798;9.698;2022-10-13T10:43:45;9.70;;;6.60;;
45534;SDS011;35892;48.798;9.698;2022-10-13T10:46:22;10.43;;;6.38;;
45534;SDS011;35892;48.798;9.698;2022-10-13T10:48:57;9.15;;;5.88;;
45534;SDS011;35892;48.798;9.698;2022-10-13T10:51:29;9.70;;;6.25;;
45534;SDS011;35892;48.798;9.698;2022-10-13T10:54:03;11.95;;;6.82;;
45534;SDS011;35892;48.798;9.698;2022-10-13T10:57:02;11.48;;;6.28;;
45534;SDS011;35892;48.798;9.698;2022-10-13T10:59:50;9.82;;;6.53;;
45534;SDS011;35892;48.798;9.698;2022-10-13T11:02:42;11.13;;;6.15;;
45534;SDS011;35892;48.798;9.698;2022-10-13T11:05:26;11.88;;;6.75;;
45534;SDS011;35892;48.798;9.698;2022-10-13T11:08:26;9.65;;;6.03;;
45534;SDS011;35892;48.798;9.698;2022-10-13T11:16:32;10.20;;;6.75;;
45534;SDS011;35892;48.798;9.698;2022-10-13T11:37:40;9.95;;;5.45;;
45534;SDS011;35892;48.798;9.698;2022-10-13T11:57:25;10.80;;;5.38;;
45534;SDS011;35892;48.798;9.698;2022-10-13T11:59:54;8.68;;;5.10;;
45534;SDS011;35892;48.798;9.698;2022-10-13T12:02:23;6.70;;;5.05;;
45534;SDS011;35892;48.798;9.698;2022-10-13T12:05:18;9.15;;;5.55;;
45534;SDS011;35892;48.798;9.698;2022-10-13T12:07:50;8.70;;;5.70;;
45534;SDS011;35892;48.798;9.698;2022-10-13T12:10:22;5.90;;;4.00;;
45534;SDS011;35892;48.798;9.698;2022-10-13T12:12:53;9.10;;;5.10;;
45534;SDS011;35892;48.798;9.698;2022-10-13T12:15:25;6.00;;;4.35;;
45534;SDS011;35892;48.798;9.698;2022-10-13T12:58:56;6.95;;;3.92;;
45534;SDS011;35892;48.798;9.698;2022-10-13T13:03:58;11.57;;;4.95;;
45534;SDS011;35892;48.798;9.698;2022-10-13T13:06:57;8.68;;;4.80;;
45534;SDS011;35892;48.798;9.698;2022-10-13T13:17:12;6.28;;;4.65;;
45534;SDS011;35892;48.798;9.698;2022-10-13T13:20:17;11.80;;;5.40;;
45534;SDS011;35892;48.798;9.698;2022-10-13T13:22:56;7.20;;;5.40;;
45534;SDS011;35892;48.798;9.698;2022-10-13T13:25:25;8.48;;;4.80;;
45534;SDS011;35892;48.798;9.698;2022-10-13T13:27:52;9.60;;;4.75;;
45534;SDS011;35892;48.798;9.698;2022-10-13T13:30:20;5.43;;;3.95;;
45534;SDS011;35892;48.798;9.698;2022-10-13T13:32:51;7.22;;;4.32;;
45534;SDS011;35892;48.798;9.698;2022-10-13T13:35:18;11.15;;;4.95;;
45534;SDS011;35892;48.798;9.698;2022-10-13T13:37:46;5.63;;;4.45;;
45534;SDS011;35892;48.798;9.698;2022-10-13T13:40:20;9.20;;;4.60;;
45534;SDS011;35892;48.798;9.698;2022-10-13T13:42:48;6.32;;;4.40;;
45534;SDS011;35892;48.798;9.698;2022-10-13T13:45:15;6.50;;;4.13;;
45534;SDS011;35892;48.798;9.698;2022-10-13T13:51:40;6.68;;;3.80;;
45534;SDS011;35892;48.798;9.698;2022-10-13T13:54:07;6.75;;;3.90;;
45534;SDS011;35892;48.798;9.698;2022-10-13T13:56:34;7.63;;;4.60;;
45534;SDS011;35892;48.798;9.698;2022-10-13T13:59:03;6.90;;;4.22;;
45534;SDS011;35892;48.798;9.698;2022-10-13T14:01:30;9.45;;;3.92;;
45534;SDS011;35892;48.798;9.698;2022-10-13T14:03:57;9.65;;;4.68;;
45534;SDS011;35892;48.798;9.698;2022-10-13T14:06:24;7.75;;;4.55;;
45534;SDS011;35892;48.798;9.698;2022-10-13T14:08:51;10.80;;;4.72;;
45534;SDS011;35892;48.798;9.698;2022-10-13T14:11:20;9.20;;;4.55;;
45534;SDS011;35892;48.798;9.698;2022-10-13T14:13:49;7.47;;;3.97;;
45534;SDS011;35892;48.798;9.698;2022-10-13T14:16:16;8.77;;;4.65;;
45534;SDS011;35892;48.798;9.698;2022-10-13T14:18:43;10.77;;;4.40;;
45534;SDS011;35892;48.798;9.698;2022-10-13T14:21:12;6.70;;;3.85;;
45534;SDS011;35892;48.798;9.698;2022-10-13T14:23:39;9.18;;;4.18;;
45534;SDS011;35892;48.798;9.698;2022-10-13T14:26:10;7.35;;;3.75;;
45534;SDS011;35892;48.798;9.698;2022-10-13T14:28:41;7.25;;;4.00;;
45534;SDS011;35892;48.798;9.698;2022-10-13T14:33:36;8.35;;;4.63;;
45534;SDS011;35892;48.798;9.698;2022-10-13T14:36:06;6.22;;;3.55;;
45534;SDS011;35892;48.798;9.698;2022-10-13T14:38:35;7.00;;;4.00;;
45534;SDS011;35892;48.798;9.698;2022-10-13T14:41:03;7.97;;;4.18;;
45534;SDS011;35892;48.798;9.698;2022-10-13T14:43:31;9.38;;;4.25;;
45534;SDS011;35892;48.798;9.698;2022-10-13T14:46:02;8.57;;;4.25;;
45534;SDS011;35892;48.798;9.698;2022-10-13T14:48:31;7.97;;;4.43;;
45534;SDS011;35892;48.798;9.698;2022-10-13T14:51:02;8.40;;;5.03;;
45534;SDS011;35892;48.798;9.698;2022-10-13T14:53:33;4.23;;;3.03;;
45534;SDS011;35892;48.798;9.698;2022-10-13T14:56:12;10.32;;;4.45;;
45534;SDS011;35892;48.798;9.698;2022-10-13T14:58:47;6.45;;;4.60;;
45534;SDS011;35892;48.798;9.698;2022-10-13T15:01:18;7.88;;;4.65;;
45534;SDS011;35892;48.798;9.698;2022-10-13T15:03:46;9.20;;;5.70;;
45534;SDS011;35892;48.798;9.698;2022-10-13T15:06:13;8.05;;;4.20;;
45534;SDS011;35892;48.798;9.698;2022-10-13T15:08:43;5.00;;;3.55;;
45534;SDS011;35892;48.798;9.698;2022-10-13T15:11:10;7.85;;;3.95;;
45534;SDS011;35892;48.798;9.698;2022-10-13T15:13:38;6.95;;;4.05;;
45534;SDS011;35892;48.798;9.698;2022-10-13T15:16:05;7.75;;;4.13;;
45534;SDS011;35892;48.798;9.698;2022-10-13T15:18:33;8.60;;;3.72;;
45534;SDS011;35892;48.798;9.698;2022-10-13T15:21:02;6.68;;;4.35;;
45534;SDS011;35892;48.798;9.698;2022-10-13T15:23:29;8.02;;;4.05;;
45534;SDS011;35892;48.798;9.698;2022-10-13T15:25:58;6.90;;;3.85;;
45534;SDS011;35892;48.798;9.698;2022-10-13T15:28:27;8.80;;;3.85;;
45534;SDS011;35892;48.798;9.698;2022-10-13T15:30:58;7.97;;;3.97;;
45534;SDS011;35892;48.798;9.698;2022-10-13T15:33:24;8.80;;;4.20;;
45534;SDS011;35892;48.798;9.698;2022-10-13T15:35:54;4.43;;;3.95;;
45534;SDS011;35892;48.798;9.698;2022-10-13T15:38:22;6.60;;;4.55;;
45534;SDS011;35892;48.798;9.698;2022-10-13T15:40:49;10.38;;;5.43;;
45534;SDS011;35892;48.798;9.698;2022-10-13T15:43:18;8.27;;;4.40;;
45534;SDS011;35892;48.798;9.698;2022-10-13T15:45:54;7.57;;;4.22;;
45534;SDS011;35892;48.798;9.698;2022-10-13T15:48:26;8.07;;;3.60;;
45534;SDS011;35892;48.798;9.698;2022-10-13T15:50:53;6.70;;;3.75;;
45534;SDS011;35892;48.798;9.698;2022-10-13T15:53:22;8.52;;;4.28;;
45534;SDS011;35892;48.798;9.698;2022-10-13T15:55:49;5.80;;;4.20;;
45534;SDS011;35892;48.798;9.698;2022-10-13T15:58:21;8.43;;;4.68;;
45534;SDS011;35892;48.798;9.698;2022-10-13T16:00:50;7.53;;;4.93;;
45534;SDS011;35892;48.798;9.698;2022-10-13T16:03:19;7.97;;;4.80;;
45534;SDS011;35892;48.798;9.698;2022-10-13T16:05:49;6.00;;;4.03;;
45534;SDS011;35892;48.798;9.698;2022-10-13T16:08:16;8.63;;;4.57;;
45534;SDS011;35892;48.798;9.698;2022-10-13T16:10:42;7.47;;;4.10;;
45534;SDS011;35892;48.798;9.698;2022-10-13T16:13:14;6.88;;;4.63;;
45534;SDS011;35892;48.798;9.698;2022-10-13T16:15:41;10.80;;;4.82;;
45534;SDS011;35892;48.798;9.698;2022-10-13T16:18:08;8.98;;;4.32;;
45534;SDS011;35892;48.798;9.698;2022-10-13T16:20:35;8.43;;;4.40;;
45534;SDS011;35892;48.798;9.698;2022-10-13T16:23:04;6.47;;;4.40;;
45534;SDS011;35892;48.798;9.698;2022-10-13T16:25:30;9.05;;;4.72;;
45534;SDS011;35892;48.798;9.698;2022-10-13T16:27:57;10.63;;;4.60;;
45534;SDS011;35892;48.798;9.698;2022-10-13T16:30:26;7.30;;;4.32;;
45534;SDS011;35892;48.798;9.698;2022-10-13T16:32:53;8.05;;;4.15;;
45534;SDS011;35892;48.798;9.698;2022-10-13T16:35:22;10.10;;;5.90;;
45534;SDS011;35892;48.798;9.698;2022-10-13T16:37:51;6.30;;;4.53;;
45534;SDS011;35892;48.798;9.698;2022-10-13T16:40:18;12.18;;;6.78;;
45534;SDS011;35892;48.798;9.698;2022-10-13T16:42:47;8.05;;;5.55;;
45534;SDS011;35892;48.798;9.698;2022-10-13T16:45:13;7.05;;;4.70;;
45534;SDS011;35892;48.798;9.698;2022-10-13T16:47:40;11.90;;;7.97;;
45534;SDS011;35892;48.798;9.698;2022-10-13T16:50:07;10.52;;;8.00;;
45534;SDS011;35892;48.798;9.698;2022-10-13T16:52:35;13.27;;;7.43;;
45534;SDS011;35892;48.798;9.698;2022-10-13T16:55:03;9.15;;;6.45;;
45534;SDS011;35892;48.798;9.698;2022-10-13T16:57:32;8.50;;;5.78;;
45534;SDS011;35892;48.798;9.698;2022-10-13T17:00:02;10.37;;;6.53;;
45534;SDS011;35892;48.798;9.698;2022-10-13T17:02:29;14.50;;;7.15;;
45534;SDS011;35892;48.798;9.698;2022-10-13T17:05:00;11.02;;;6.95;;
45534;SDS011;35892;48.798;9.698;2022-10-13T17:07:29;10.52;;;6.60;;
45534;SDS011;35892;48.798;9.698;2022-10-13T17:09:56;9.70;;;6.80;;
45534;SDS011;35892;48.798;9.698;2022-10-13T17:12:23;10.18;;;6.30;;
45534;SDS011;35892;48.798;9.698;2022-10-13T17:14:49;10.77;;;6.03;;
45534;SDS011;35892;48.798;9.698;2022-10-13T17:17:21;8.55;;;5.50;;
45534;SDS011;35892;48.798;9.698;2022-10-13T17:19:48;9.38;;;6.63;;
45534;SDS011;35892;48.798;9.698;2022-10-13T17:22:17;8.25;;;6.15;;
45534;SDS011;35892;48.798;9.698;2022-10-13T17:24:44;11.60;;;7.00;;
45534;SDS011;35892;48.798;9.698;2022-10-13T17:27:14;13.23;;;7.80;;
45534;SDS011;35892;48.798;9.698;2022-10-13T17:29:46;14.57;;;9.77;;
45534;SDS011;35892;48.798;9.698;2022-10-13T17:32:19;13.98;;;9.88;;
45534;SDS011;35892;48.798;9.698;2022-10-13T17:34:49;13.65;;;8.13;;
45534;SDS011;35892;48.798;9.698;2022-10-13T17:37:23;12.02;;;8.32;;
45534;SDS011;35892;48.798;9.698;2022-10-13T17:39:52;16.23;;;8.90;;